Latest Weather Observations for Badgerys Creek

IDN60901

Issued at 11:01 am EST Thursday 1 October 2020 (issued every 10 minutes, with the page automatically refreshed every 10 minutes)

About weather observations | Map of Sydney area stations | Latest observations for Sydney area | Other Formats
Station Details ID: 067108 Name: BADGERYS CREEK AWS Lat: -33.90 Lon: 150.73 Height: 81.2 m
Data from the previous 72 hours. | See also: Recent months at Badgerys Creek
Date/Time
EST
Temp
°C
App
Temp
°C
Dew
Point
°C
Rel
Hum
%
Delta-T
°C
Wind Press
QNH
hPa
Press
MSL
hPa
Rain since
9am
mm
Dir  Spd
km/h
Gust
km/h
Spd
kts
Gust
kts
01/11:00am 22.4 21.6 9.6 44 6.9 SW 4 20 2 11 1014.6 1014.5 0.0
01/10:30am 21.8 20.1 10.0 47 6.4 WSW 9 19 5 10 1014.9 1014.8 0.0
01/10:00am 21.9 21.4 12.5 55 5.3 WSW 7 17 4 9 1015.1 1015.0 0.0
01/09:30am 20.0 20.8 12.7 63 4.1 CALM 0 4 0 2 1015.1 1015.1 0.0
01/09:00am 19.5 20.3 12.5 64 3.9 CALM 0 9 0 5 1015.0 1015.0 0.4
01/08:30am 18.3 19.3 13.2 72 2.9 CALM 0 0 0 0 1014.8 1014.8 0.4
01/08:00am 16.7 18.0 14.0 84 1.5 CALM 0 0 0 0 1014.9 1014.9 0.4
01/07:30am 14.2 15.5 14.2 100 0.0 CALM 0 0 0 0 1014.7 1014.7 0.4
01/07:00am 12.7 13.5 12.7 100 0.0 CALM 0 0 0 0 1014.5 1014.5 0.4
01/06:30am 12.4 12.0 12.4 100 0.0 SW 6 11 3 6 1014.0 1014.0 0.4
01/06:00am 12.4 13.1 12.2 99 0.1 CALM 0 2 0 1 1013.2 1013.1 0.4
01/05:30am 12.7 11.8 12.5 99 0.1 WSW 9 19 5 10 1013.6 1013.5 0.2
01/05:00am 12.1 12.3 11.9 99 0.1 WSW 2 7 1 4 1012.6 1012.5 0.0
01/04:30am 11.9 12.4 11.6 98 0.2 CALM 0 0 0 0 1012.1 1012.0 0.0
01/04:00am 11.9 12.3 11.4 97 0.3 CALM 0 0 0 0 1011.7 1011.6 0.0
01/03:30am 12.6 13.2 12.0 96 0.3 CALM 0 0 0 0 1011.7 1011.6 0.0
01/03:00am 12.2 12.8 11.9 98 0.2 CALM 0 0 0 0 1011.6 1011.5 0.0
01/02:30am 12.5 13.0 11.6 94 0.5 CALM 0 0 0 0 1011.9 1011.8 0.0
01/02:00am 13.0 13.5 11.7 92 0.7 CALM 0 0 0 0 1011.9 1011.8 0.0
01/01:30am 12.9 13.5 11.8 93 0.6 CALM 0 0 0 0 1012.2 1012.1 0.0
01/01:00am 12.8 13.4 11.9 94 0.5 CALM 0 0 0 0 1012.3 1012.2 0.0
01/12:30am 12.9 13.4 11.6 92 0.7 CALM 0 0 0 0 1012.4 1012.3 0.0
01/12:00am 13.3 13.7 11.2 87 1.1 CALM 0 0 0 0 1012.4 1012.3 0.0
 
Date/Time
EST
Temp
°C
App
Temp
°C
Dew
Point
°C
Rel
Hum
%
Delta-T
°C
Wind Press
QNH
hPa
Press
MSL
hPa
Rain since
9am
mm
Dir  Spd
km/h
Gust
km/h
Spd
kts
Gust
kts
30/11:30pm 13.5 13.9 11.2 86 1.2 CALM 0 0 0 0 1012.9 1012.8 0.0
30/11:00pm 13.4 11.6 10.9 85 1.3 N 11 13 6 7 1013.1 1013.0 0.0
30/10:30pm 14.1 12.8 11.4 84 1.4 NNE 9 13 5 7 1013.3 1013.2 0.0
30/10:00pm 14.4 12.4 11.6 83 1.5 NNE 13 19 7 10 1013.3 1013.2 0.0
30/09:30pm 14.3 11.5 11.5 83 1.5 NNE 17 20 9 11 1013.3 1013.2 0.0
30/09:00pm 13.4 12.3 10.8 84 1.4 NNE 7 11 4 6 1014.0 1014.0 0.0
30/08:30pm 13.7 13.8 10.3 80 1.8 CALM 0 4 0 2 1014.2 1014.2 0.0
30/08:00pm 13.8 12.8 11.0 83 1.5 NNE 7 9 4 5 1013.8 1013.7 0.0
30/07:30pm 14.2 12.8 11.0 81 1.7 NNE 9 13 5 7 1014.0 1014.0 0.0
30/07:00pm 14.9 14.7 11.7 81 1.7 NNE 4 9 2 5 1013.9 1013.8 0.0
30/06:30pm 15.6 14.9 12.0 79 2.0 NNE 7 11 4 6 1013.5 1013.4 0.0
30/06:00pm 16.1 15.4 11.9 76 2.3 NNE 7 15 4 8 1013.6 1013.5 0.0
30/05:30pm 16.3 16.4 12.7 79 2.0 NNE 4 11 2 6 1013.7 1013.6 0.0
30/05:00pm 16.7 14.4 11.8 73 2.7 N 15 22 8 12 1013.6 1013.5 0.0
30/04:30pm 18.0 17.0 11.1 64 3.8 N 7 15 4 8 1013.4 1013.3 0.0
30/04:00pm 17.4 17.8 11.4 68 3.3 CALM 0 0 0 0 1013.5 1013.4 0.0
30/03:30pm 18.0 18.3 10.9 63 3.8 CALM 0 0 0 0 1013.5 1013.4 0.0
30/03:00pm 18.2 16.3 10.6 61 4.1 NNE 11 19 6 10 1013.6 1013.5 0.0
30/02:30pm 18.6 16.7 10.4 59 4.4 NNE 11 19 6 10 1013.8 1013.7 0.0
30/02:00pm 18.6 17.1 10.4 59 4.4 N 9 17 5 9 1014.1 1014.1 0.0
30/01:30pm 18.7 17.3 10.8 60 4.3 N 9 19 5 10 1014.6 1014.6 0.0
30/01:00pm 18.1 16.6 10.7 62 4.0 NNE 9 13 5 7 1015.4 1015.4 0.0
30/12:30pm 17.8 15.8 10.2 61 4.1 NNE 11 19 6 10 1016.0 1016.0 0.0
30/12:00pm 17.6 16.0 10.2 62 3.9 NNE 9 17 5 9 1016.6 1016.6 0.0
30/11:30am 16.7 15.4 9.9 64 3.6 N 7 13 4 7 1017.2 1017.2 0.0
30/11:00am 16.1 15.6 9.5 65 3.4 NNE 2 6 1 3 1018.1 1018.0 0.0
30/10:30am 15.6 15.6 9.9 69 3.0 CALM 0 6 0 3 1018.8 1018.7 0.0
30/10:00am 15.4 14.6 9.7 69 3.0 NE 4 9 2 5 1019.6 1019.5 0.0
30/09:30am 15.5 15.4 9.4 67 3.2 CALM 0 0 0 0 1019.9 1019.8 0.0
30/09:00am 14.7 14.6 9.3 70 2.8 CALM 0 0 0 0 1020.3 1020.2 0.0
30/08:30am 13.9 13.7 9.1 73 2.4 CALM 0 0 0 0 1020.3 1020.2 0.0
30/08:00am 12.6 12.9 10.8 89 0.9 CALM 0 0 0 0 1020.3 1020.2 0.0
30/07:30am 10.9 11.1 10.7 99 0.1 CALM 0 0 0 0 1020.4 1020.3 0.0
30/07:00am 9.6 9.5 9.5 99 0.0 CALM 0 0 0 0 1020.2 1020.1 0.0
30/06:30am 8.9 8.6 8.8 99 0.0 CALM 0 0 0 0 1020.3 1020.2 0.0
30/06:00am 8.2 7.8 8.1 99 0.0 CALM 0 0 0 0 1020.0 1019.9 0.0
30/05:30am 8.1 7.7 8.1 100 0.0 CALM 0 0 0 0 1019.9 1019.8 0.0
30/05:00am 7.9 7.4 7.9 100 0.0 CALM 0 0 0 0 1019.6 1019.5 0.0
30/04:30am 8.1 7.7 8.1 100 0.0 CALM 0 0 0 0 1019.4 1019.3 0.0
30/04:00am 8.2 7.8 8.2 100 0.0 CALM 0 0 0 0 1019.5 1019.4 0.0
30/03:30am 7.9 7.4 7.9 100 0.0 CALM 0 0 0 0 1019.9 1019.8 0.0
30/03:00am 8.1 7.6 8.0 99 0.0 CALM 0 0 0 0 1020.1 1020.0 0.0
30/02:30am 7.6 7.0 7.5 99 0.0 CALM 0 0 0 0 1020.7 1020.6 0.0
30/02:00am 7.8 7.3 7.7 99 0.0 CALM 0 0 0 0 1021.0 1020.9 0.0
30/01:30am 8.2 7.8 8.1 99 0.0 CALM 0 0 0 0 1021.4 1021.3 0.0
30/01:00am 9.0 8.8 8.9 99 0.0 CALM 0 0 0 0 1021.7 1021.6 0.0
30/12:30am 8.8 8.5 8.5 98 0.1 CALM 0 0 0 0 1022.2 1022.1 0.0
30/12:00am 9.3 8.9 8.2 93 0.5 CALM 0 0 0 0 1022.4 1022.3 0.0
 
Date/Time
EST
Temp
°C
App
Temp
°C
Dew
Point
°C
Rel
Hum
%
Delta-T
°C
Wind Press
QNH
hPa
Press
MSL
hPa
Rain since
9am
mm
Dir  Spd
km/h
Gust
km/h
Spd
kts
Gust
kts
29/11:30pm 10.6 10.3 8.5 87 1.0 CALM 0 0 0 0 1022.8 1022.7 0.0
29/11:00pm 10.9 10.8 9.3 90 0.8 CALM 0 0 0 0 1023.1 1023.0 0.0
29/10:30pm 9.7 9.2 7.8 88 0.9 CALM 0 0 0 0 1023.3 1023.2 0.0
29/10:00pm 10.6 10.2 8.2 85 1.2 CALM 0 0 0 0 1023.5 1023.4 0.0
29/09:30pm 11.9 11.5 8.4 79 1.7 CALM 0 0 0 0 1023.7 1023.6 0.0
29/09:00pm 12.5 12.2 8.6 77 1.9 CALM 0 0 0 0 1024.0 1023.9 0.0
29/08:30pm 12.1 11.6 8.0 76 2.0 CALM 0 0 0 0 1024.2 1024.1 0.0
29/08:00pm 12.6 12.2 8.1 74 2.2 CALM 0 0 0 0 1024.0 1023.9 0.0
29/07:30pm 12.5 12.0 8.0 74 2.2 CALM 0 0 0 0 1023.8 1023.7 0.0
29/07:00pm 12.9 11.3 8.0 72 2.4 ENE 6 9 3 5 1023.8 1023.7 0.0
29/06:30pm 13.9 13.4 7.9 67 3.0 CALM 0 0 0 0 1023.4 1023.3 0.0
29/06:00pm 15.1 12.6 8.1 63 3.5 E 11 17 6 9 1022.7 1022.6 0.0
29/05:30pm 16.1 12.9 8.3 60 4.0 E 15 22 8 12 1022.4 1022.3 0.0
29/05:00pm 17.3 13.7 8.4 56 4.6 E 17 28 9 15 1022.3 1022.2 0.0
29/04:30pm 17.8 13.9 8.6 55 4.8 E 19 28 10 15 1022.1 1022.0 0.0
29/04:00pm 18.6 15.1 8.6 52 5.2 E 17 26 9 14 1022.2 1022.1 0.0
29/03:30pm 19.6 16.7 8.3 48 5.9 ENE 13 22 7 12 1022.1 1022.0 0.0
29/03:00pm 20.2 18.0 5.1 37 7.4 NE 6 15 3 8 1022.1 1022.0 0.0
29/02:30pm 20.6 18.7 6.5 40 7.1 N 6 19 3 10 1022.7 1022.6 0.0
29/02:00pm 20.3 18.2 5.9 39 7.2 NNE 6 15 3 8 1023.4 1023.3 0.0
29/01:30pm 19.9 17.4 6.6 42 6.7 NNE 9 22 5 12 1023.9 1023.8 0.0
29/01:00pm 19.7 18.3 7.4 45 6.3 NE 4 17 2 9 1024.4 1024.4 0.0
29/12:30pm 17.9 15.8 6.7 48 5.6 NNE 7 19 4 10 1024.9 1024.9 0.0
29/12:00pm 17.9 17.2 7.0 49 5.4 CALM 0 11 0 6 1025.3 1025.3 0.0
29/11:30am 18.6 17.7 7.7 49 5.6 NNE 2 9 1 5 1025.9 1025.9 0.0
29/11:00am 17.5 16.1 7.3 51 5.1 NNW 4 19 2 10 1026.4 1026.4 0.0
29/10:30am 16.8 15.5 7.7 55 4.6 NE 4 15 2 8 1027.3 1027.3 0.0
29/10:00am 17.3 16.5 8.2 55 4.6 NNE 2 13 1 7 1027.9 1027.9 0.0
29/09:30am 16.1 15.7 8.1 59 4.1 CALM 0 0 0 0 1028.0 1028.0 0.0
29/09:00am 15.6 15.1 7.9 60 3.8 CALM 0 2 0 1 1027.9 1027.9 0.0
29/08:30am 14.9 14.7 9.1 68 3.0 CALM 0 0 0 0 1027.9 1027.9 0.0
29/08:00am 14.3 14.1 8.9 70 2.7 CALM 0 0 0 0 1028.1 1028.1 0.0
29/07:30am 13.3 13.3 9.9 80 1.8 CALM 0 0 0 0 1027.8 1027.8 0.0
29/07:00am 12.4 12.6 10.5 88 1.0 CALM 0 0 0 0 1027.4 1027.4 0.0
29/06:30am 11.6 11.6 9.9 89 0.9 CALM 0 0 0 0 1027.0 1027.0 0.0
29/06:00am 11.2 11.3 10.0 92 0.6 CALM 0 0 0 0 1026.8 1026.8 0.0
29/05:30am 10.8 10.6 9.2 90 0.8 CALM 0 0 0 0 1026.1 1026.1 0.0
29/05:00am 10.8 10.5 8.7 87 1.0 CALM 0 0 0 0 1025.8 1025.8 0.0
29/04:30am 11.2 10.9 8.8 85 1.2 CALM 0 0 0 0 1025.7 1025.7 0.0
29/04:00am 11.1 10.9 9.0 87 1.0 CALM 0 0 0 0 1025.7 1025.7 0.0
29/03:30am 11.1 10.9 9.0 87 1.0 CALM 0 0 0 0 1026.0 1026.0 0.0
29/03:00am 11.0 10.8 9.1 88 0.9 CALM 0 0 0 0 1026.3 1026.3 0.0
29/02:30am 11.1 10.9 9.2 88 1.0 CALM 0 0 0 0 1026.5 1026.5 0.0
29/02:00am 10.8 10.6 9.1 89 0.8 CALM 0 2 0 1 1026.6 1026.6 0.0
29/01:30am 10.7 10.5 9.0 89 0.8 CALM 0 0 0 0 1026.8 1026.8 0.0
29/01:00am 10.5 10.3 9.1 91 0.7 CALM 0 0 0 0 1027.0 1027.0 0.0
29/12:30am 10.0 9.8 9.1 94 0.4 CALM 0 0 0 0 1027.2 1027.2 0.0
29/12:00am 8.9 8.6 8.5 97 0.2 CALM 0 0 0 0 1027.4 1027.4 0.0
 
Date/Time
EST
Temp
°C
App
Temp
°C
Dew
Point
°C
Rel
Hum
%
Delta-T
°C
Wind Press
QNH
hPa
Press
MSL
hPa
Rain since
9am
mm
Dir  Spd
km/h
Gust
km/h
Spd
kts
Gust
kts
28/11:30pm 8.4 7.9 7.8 96 0.3 CALM 0 0 0 0 1027.4 1027.4 0.0
28/11:00pm 8.5 7.9 7.4 93 0.5 CALM 0 0 0 0 1027.3 1027.3 0.0
28/10:30pm 9.4 8.8 7.2 86 1.0 CALM 0 0 0 0 1027.3 1027.3 0.0
28/10:00pm 9.4 8.8 7.2 86 1.0 CALM 0 0 0 0 1027.3 1027.3 0.0
28/09:30pm 10.4 9.6 6.4 76 1.9 CALM 0 0 0 0 1027.2 1027.2 0.0
28/09:00pm 11.3 10.6 7.0 75 2.0 CALM 0 0 0 0 1027.1 1027.1 0.0
28/08:30pm 11.3 10.6 7.0 75 2.1 CALM 0 0 0 0 1027.0 1027.0 0.0
28/08:00pm 12.3 11.5 6.6 68 2.7 CALM 0 0 0 0 1026.7 1026.7 0.0
28/07:30pm 12.5 11.8 6.8 68 2.7 CALM 0 0 0 0 1026.3 1026.3 0.0
28/07:00pm 13.4 12.2 6.5 63 3.3 E 2 7 1 4 1025.5 1025.5 0.0
28/06:30pm 14.4 12.5 6.7 60 3.7 ESE 6 13 3 7 1025.1 1025.1 0.0
28/06:00pm 15.4 13.0 6.9 57 4.2 E 9 19 5 10 1024.5 1024.5 0.0
28/05:30pm 16.8 14.3 6.6 51 5.0 E 9 15 5 8 1023.9 1023.8 0.0
28/05:00pm 19.0 17.5 3.2 35 7.4 CALM 0 0 0 0 1023.6 1023.5 0.0
28/04:30pm 19.6 17.9 2.0 31 8.1 CALM 0 0 0 0 1023.4 1023.3 0.0
28/04:00pm 19.8 17.9 2.6 32 8.0 E 2 9 1 5 1023.4 1023.3 0.0
28/03:30pm 20.1 18.6 2.9 32 8.1 CALM 0 6 0 3 1023.6 1023.5 0.0
28/03:00pm 20.1 18.3 3.3 33 7.9 NE 2 9 1 5 1023.7 1023.6 0.0
28/02:30pm 19.9 18.3 2.7 32 8.0 CALM 0 2 0 1 1023.9 1023.8 0.0
28/02:00pm 19.6 18.0 2.5 32 7.9 CALM 0 9 0 5 1024.3 1024.2 0.0
28/01:30pm 19.6 18.2 3.3 34 7.7 CALM 0 0 0 0 1024.6 1024.6 0.0
28/01:00pm 19.4 17.8 4.4 37 7.2 NNE 2 9 1 5 1024.9 1024.9 0.0
28/12:30pm 18.6 16.8 3.3 36 7.2 N 2 15 1 8 1025.3 1025.3 0.0
28/12:00pm 18.4 16.5 4.9 41 6.5 N 4 13 2 7 1025.8 1025.8 0.0
28/11:30am 18.4 17.2 6.6 46 5.9 N 2 13 1 7 1026.3 1026.3 0.0

Latest Capital City Observations: Canberra | Sydney | Melbourne | Brisbane | Adelaide | Perth | Hobart | Darwin

Other formats

Comma delimited format used in spreadsheet applications
http://www.bom.gov.au/fwo/IDN60901/IDN60901.94752.axf

JavaScript Object Notation format (JSON) in row-major order
http://www.bom.gov.au/fwo/IDN60901/IDN60901.94752.json

Data quality

Most of these data are generated automatically and are frequently updated. Quality checks on data are not normally performed. It is possible for incorrect values to appear. Refer to information at About Latest Weather Observations and please check the disclaimer before using these data.